sensor_id;sensor_type;location;lat;lon;timestamp;temperature;humidity
17172;DHT22;8701;50.150;8.756;2023-04-03T00:00:41;7.00;99.90
17172;DHT22;8701;50.150;8.756;2023-04-03T00:04:43;7.00;99.90
17172;DHT22;8701;50.150;8.756;2023-04-03T00:08:45;7.00;99.90
17172;DHT22;8701;50.150;8.756;2023-04-03T00:12:47;7.00;99.90
17172;DHT22;8701;50.150;8.756;2023-04-03T00:16:51;7.10;99.90
17172;DHT22;8701;50.150;8.756;2023-04-03T00:20:53;7.10;99.90
17172;DHT22;8701;50.150;8.756;2023-04-03T00:24:55;7.00;99.90
17172;DHT22;8701;50.150;8.756;2023-04-03T00:28:58;7.00;99.90
17172;DHT22;8701;50.150;8.756;2023-04-03T00:33:01;7.00;99.90
17172;DHT22;8701;50.150;8.756;2023-04-03T00:37:04;7.00;99.90
17172;DHT22;8701;50.150;8.756;2023-04-03T00:41:06;7.10;99.90
17172;DHT22;8701;50.150;8.756;2023-04-03T00:45:28;7.10;99.90
17172;DHT22;8701;50.150;8.756;2023-04-03T00:49:32;7.10;99.90
17172;DHT22;8701;50.150;8.756;2023-04-03T00:53:37;7.10;99.90
17172;DHT22;8701;50.150;8.756;2023-04-03T00:57:40;7.10;99.90
17172;DHT22;8701;50.150;8.756;2023-04-03T01:01:43;7.10;99.90
17172;DHT22;8701;50.150;8.756;2023-04-03T01:05:47;7.00;99.90
17172;DHT22;8701;50.150;8.756;2023-04-03T01:09:53;7.00;99.90
17172;DHT22;8701;50.150;8.756;2023-04-03T01:13:57;7.00;99.90
17172;DHT22;8701;50.150;8.756;2023-04-03T01:18:00;7.00;99.90
17172;DHT22;8701;50.150;8.756;2023-04-03T01:22:11;7.00;99.90
17172;DHT22;8701;50.150;8.756;2023-04-03T01:26:18;7.00;99.90
17172;DHT22;8701;50.150;8.756;2023-04-03T01:30:25;6.90;99.90
17172;DHT22;8701;50.150;8.756;2023-04-03T01:34:31;6.90;99.90
17172;DHT22;8701;50.150;8.756;2023-04-03T01:38:34;6.90;99.90
17172;DHT22;8701;50.150;8.756;2023-04-03T01:42:36;6.90;99.90
17172;DHT22;8701;50.150;8.756;2023-04-03T01:46:40;6.90;99.90
17172;DHT22;8701;50.150;8.756;2023-04-03T01:50:44;6.90;99.90
17172;DHT22;8701;50.150;8.756;2023-04-03T01:54:47;6.90;99.90
17172;DHT22;8701;50.150;8.756;2023-04-03T01:58:49;6.90;99.90
17172;DHT22;8701;50.150;8.756;2023-04-03T02:02:52;6.90;99.90
17172;DHT22;8701;50.150;8.756;2023-04-03T02:06:56;6.90;99.90
17172;DHT22;8701;50.150;8.756;2023-04-03T02:10:58;6.80;99.90
17172;DHT22;8701;50.150;8.756;2023-04-03T02:15:01;6.90;99.90
17172;DHT22;8701;50.150;8.756;2023-04-03T02:19:03;6.90;99.90
17172;DHT22;8701;50.150;8.756;2023-04-03T02:23:07;6.80;99.90
17172;DHT22;8701;50.150;8.756;2023-04-03T02:27:09;6.80;99.90
17172;DHT22;8701;50.150;8.756;2023-04-03T02:31:11;6.80;99.90
17172;DHT22;8701;50.150;8.756;2023-04-03T02:35:15;6.80;99.90
17172;DHT22;8701;50.150;8.756;2023-04-03T02:39:19;6.80;99.90
17172;DHT22;8701;50.150;8.756;2023-04-03T02:43:23;6.80;99.90
17172;DHT22;8701;50.150;8.756;2023-04-03T02:47:25;6.80;99.90
17172;DHT22;8701;50.150;8.756;2023-04-03T02:51:27;6.70;99.90
17172;DHT22;8701;50.150;8.756;2023-04-03T02:55:31;6.70;99.90
17172;DHT22;8701;50.150;8.756;2023-04-03T02:59:33;6.70;99.90
17172;DHT22;8701;50.150;8.756;2023-04-03T03:03:36;6.70;99.90
17172;DHT22;8701;50.150;8.756;2023-04-03T03:07:38;6.70;99.90
17172;DHT22;8701;50.150;8.756;2023-04-03T03:11:42;6.60;99.90
17172;DHT22;8701;50.150;8.756;2023-04-03T03:15:44;6.70;99.90
17172;DHT22;8701;50.150;8.756;2023-04-03T03:19:46;6.60;99.90
17172;DHT22;8701;50.150;8.756;2023-04-03T03:23:48;6.70;99.90
17172;DHT22;8701;50.150;8.756;2023-04-03T03:27:52;6.60;99.90
17172;DHT22;8701;50.150;8.756;2023-04-03T03:31:54;6.50;99.90
17172;DHT22;8701;50.150;8.756;2023-04-03T03:35:56;6.50;99.90
17172;DHT22;8701;50.150;8.756;2023-04-03T03:39:58;6.40;99.90
17172;DHT22;8701;50.150;8.756;2023-04-03T03:44:02;6.40;99.90
17172;DHT22;8701;50.150;8.756;2023-04-03T03:48:07;6.40;99.90
17172;DHT22;8701;50.150;8.756;2023-04-03T03:52:10;6.40;99.90
17172;DHT22;8701;50.150;8.756;2023-04-03T03:56:12;6.50;99.90
17172;DHT22;8701;50.150;8.756;2023-04-03T04:00:18;6.40;99.90
17172;DHT22;8701;50.150;8.756;2023-04-03T04:04:26;6.40;99.90
17172;DHT22;8701;50.150;8.756;2023-04-03T04:08:30;6.40;99.90
17172;DHT22;8701;50.150;8.756;2023-04-03T04:12:32;6.40;99.90
17172;DHT22;8701;50.150;8.756;2023-04-03T04:16:38;6.30;99.90
17172;DHT22;8701;50.150;8.756;2023-04-03T04:20:45;6.30;99.90
17172;DHT22;8701;50.150;8.756;2023-04-03T04:24:49;6.30;99.90
17172;DHT22;8701;50.150;8.756;2023-04-03T04:28:51;6.30;99.90
17172;DHT22;8701;50.150;8.756;2023-04-03T04:32:56;6.20;99.90
17172;DHT22;8701;50.150;8.756;2023-04-03T04:36:59;6.10;99.90
17172;DHT22;8701;50.150;8.756;2023-04-03T04:41:02;6.00;99.90
17172;DHT22;8701;50.150;8.756;2023-04-03T04:45:06;5.90;99.90
17172;DHT22;8701;50.150;8.756;2023-04-03T04:49:10;5.90;99.90
17172;DHT22;8701;50.150;8.756;2023-04-03T04:53:13;5.90;99.90
17172;DHT22;8701;50.150;8.756;2023-04-03T04:57:17;5.90;99.90
17172;DHT22;8701;50.150;8.756;2023-04-03T05:01:19;5.80;99.90
17172;DHT22;8701;50.150;8.756;2023-04-03T05:05:31;5.70;99.90
17172;DHT22;8701;50.150;8.756;2023-04-03T05:09:33;5.70;99.90
17172;DHT22;8701;50.150;8.756;2023-04-03T05:13:36;5.70;99.90
17172;DHT22;8701;50.150;8.756;2023-04-03T05:17:38;5.70;99.90
17172;DHT22;8701;50.150;8.756;2023-04-03T05:21:44;5.70;99.90
17172;DHT22;8701;50.150;8.756;2023-04-03T05:25:49;5.60;99.90
17172;DHT22;8701;50.150;8.756;2023-04-03T05:29:53;5.60;99.90
17172;DHT22;8701;50.150;8.756;2023-04-03T05:33:57;5.60;99.90
17172;DHT22;8701;50.150;8.756;2023-04-03T05:38:03;5.60;99.90
17172;DHT22;8701;50.150;8.756;2023-04-03T05:42:07;5.60;99.90
17172;DHT22;8701;50.150;8.756;2023-04-03T05:46:11;5.50;99.90
17172;DHT22;8701;50.150;8.756;2023-04-03T05:50:14;5.40;99.90
17172;DHT22;8701;50.150;8.756;2023-04-03T05:54:20;5.40;99.90
17172;DHT22;8701;50.150;8.756;2023-04-03T05:58:24;5.40;99.90
17172;DHT22;8701;50.150;8.756;2023-04-03T06:02:28;5.50;99.90
17172;DHT22;8701;50.150;8.756;2023-04-03T06:06:44;5.50;99.90
17172;DHT22;8701;50.150;8.756;2023-04-03T06:10:47;5.50;99.90
17172;DHT22;8701;50.150;8.756;2023-04-03T06:14:49;5.60;99.90
17172;DHT22;8701;50.150;8.756;2023-04-03T06:18:52;5.70;99.90
17172;DHT22;8701;50.150;8.756;2023-04-03T06:22:54;5.80;99.90
17172;DHT22;8701;50.150;8.756;2023-04-03T06:26:58;5.90;99.90
17172;DHT22;8701;50.150;8.756;2023-04-03T06:31:00;6.00;99.90
17172;DHT22;8701;50.150;8.756;2023-04-03T06:35:03;6.10;99.90
17172;DHT22;8701;50.150;8.756;2023-04-03T06:39:06;6.10;99.90
17172;DHT22;8701;50.150;8.756;2023-04-03T06:43:10;6.20;99.90
17172;DHT22;8701;50.150;8.756;2023-04-03T06:47:13;6.30;99.90
17172;DHT22;8701;50.150;8.756;2023-04-03T06:51:19;6.40;99.90
17172;DHT22;8701;50.150;8.756;2023-04-03T06:55:21;6.50;99.90
17172;DHT22;8701;50.150;8.756;2023-04-03T06:59:25;6.60;99.90
17172;DHT22;8701;50.150;8.756;2023-04-03T07:03:28;6.60;99.90
17172;DHT22;8701;50.150;8.756;2023-04-03T07:07:30;6.60;99.90
17172;DHT22;8701;50.150;8.756;2023-04-03T07:11:34;6.70;99.90
17172;DHT22;8701;50.150;8.756;2023-04-03T07:15:38;6.80;99.90
17172;DHT22;8701;50.150;8.756;2023-04-03T07:19:40;7.00;99.90
17172;DHT22;8701;50.150;8.756;2023-04-03T07:23:42;7.10;99.90
17172;DHT22;8701;50.150;8.756;2023-04-03T07:27:45;7.20;99.90
17172;DHT22;8701;50.150;8.756;2023-04-03T07:31:49;7.40;99.90
17172;DHT22;8701;50.150;8.756;2023-04-03T07:35:52;7.60;99.90
17172;DHT22;8701;50.150;8.756;2023-04-03T07:39:55;7.80;99.90
17172;DHT22;8701;50.150;8.756;2023-04-03T07:43:59;8.10;99.90
17172;DHT22;8701;50.150;8.756;2023-04-03T07:48:03;8.40;99.90
17172;DHT22;8701;50.150;8.756;2023-04-03T07:52:06;8.80;99.90
17172;DHT22;8701;50.150;8.756;2023-04-03T07:56:10;9.80;99.90
17172;DHT22;8701;50.150;8.756;2023-04-03T08:00:13;11.70;99.90
17172;DHT22;8701;50.150;8.756;2023-04-03T08:04:17;13.70;99.90
17172;DHT22;8701;50.150;8.756;2023-04-03T08:08:21;14.90;99.90
17172;DHT22;8701;50.150;8.756;2023-04-03T08:12:23;14.80;99.90
17172;DHT22;8701;50.150;8.756;2023-04-03T08:16:25;14.80;99.90
17172;DHT22;8701;50.150;8.756;2023-04-03T08:20:30;15.40;99.90
17172;DHT22;8701;50.150;8.756;2023-04-03T08:24:32;16.40;99.90
17172;DHT22;8701;50.150;8.756;2023-04-03T08:28:34;17.50;96.30
17172;DHT22;8701;50.150;8.756;2023-04-03T08:32:37;18.10;96.40
17172;DHT22;8701;50.150;8.756;2023-04-03T08:36:40;19.10;94.40
17172;DHT22;8701;50.150;8.756;2023-04-03T08:40:43;19.90;91.30
17172;DHT22;8701;50.150;8.756;2023-04-03T08:44:50;20.40;88.60
17172;DHT22;8701;50.150;8.756;2023-04-03T08:48:54;21.10;87.10
17172;DHT22;8701;50.150;8.756;2023-04-03T08:53:01;21.80;81.10
17172;DHT22;8701;50.150;8.756;2023-04-03T08:57:06;22.00;82.40
17172;DHT22;8701;50.150;8.756;2023-04-03T09:01:17;22.20;77.40
17172;DHT22;8701;50.150;8.756;2023-04-03T09:05:32;22.60;72.30
17172;DHT22;8701;50.150;8.756;2023-04-03T09:09:40;22.80;72.40
17172;DHT22;8701;50.150;8.756;2023-04-03T09:13:49;23.40;72.20
17172;DHT22;8701;50.150;8.756;2023-04-03T09:18:00;24.20;68.10
17172;DHT22;8701;50.150;8.756;2023-04-03T09:22:13;24.40;71.50
17172;DHT22;8701;50.150;8.756;2023-04-03T09:26:24;24.60;68.40
17172;DHT22;8701;50.150;8.756;2023-04-03T09:30:28;22.50;67.80
17172;DHT22;8701;50.150;8.756;2023-04-03T09:34:32;22.00;68.20
17172;DHT22;8701;50.150;8.756;2023-04-03T09:38:37;20.70;69.60
17172;DHT22;8701;50.150;8.756;2023-04-03T09:42:41;20.30;70.80
17172;DHT22;8701;50.150;8.756;2023-04-03T09:46:44;20.70;72.40
17172;DHT22;8701;50.150;8.756;2023-04-03T09:50:56;21.80;70.10
17172;DHT22;8701;50.150;8.756;2023-04-03T09:55:07;22.80;65.00
17172;DHT22;8701;50.150;8.756;2023-04-03T09:59:15;23.40;65.80
17172;DHT22;8701;50.150;8.756;2023-04-03T10:03:24;24.30;66.30
17172;DHT22;8701;50.150;8.756;2023-04-03T10:07:30;25.10;62.90
17172;DHT22;8701;50.150;8.756;2023-04-03T10:11:33;24.70;62.20
17172;DHT22;8701;50.150;8.756;2023-04-03T10:15:41;24.40;63.40
17172;DHT22;8701;50.150;8.756;2023-04-03T10:19:47;24.90;62.10
17172;DHT22;8701;50.150;8.756;2023-04-03T10:23:56;25.00;62.20
17172;DHT22;8701;50.150;8.756;2023-04-03T10:28:04;25.40;59.80
17172;DHT22;8701;50.150;8.756;2023-04-03T10:32:23;24.60;58.40
17172;DHT22;8701;50.150;8.756;2023-04-03T10:36:37;24.90;59.90
17172;DHT22;8701;50.150;8.756;2023-04-03T10:40:46;25.40;59.20
17172;DHT22;8701;50.150;8.756;2023-04-03T10:45:02;23.80;57.30
17172;DHT22;8701;50.150;8.756;2023-04-03T10:49:22;23.10;61.70
17172;DHT22;8701;50.150;8.756;2023-04-03T10:53:33;24.30;58.90
17172;DHT22;8701;50.150;8.756;2023-04-03T10:57:37;25.20;59.60
17172;DHT22;8701;50.150;8.756;2023-04-03T11:01:41;25.50;55.80
17172;DHT22;8701;50.150;8.756;2023-04-03T11:05:49;25.70;55.00
17172;DHT22;8701;50.150;8.756;2023-04-03T11:09:56;26.00;53.80
17172;DHT22;8701;50.150;8.756;2023-04-03T11:14:03;26.10;54.40
17172;DHT22;8701;50.150;8.756;2023-04-03T11:18:12;26.30;53.20
17172;DHT22;8701;50.150;8.756;2023-04-03T11:22:23;26.50;54.70
17172;DHT22;8701;50.150;8.756;2023-04-03T11:26:29;27.20;53.50
17172;DHT22;8701;50.150;8.756;2023-04-03T11:30:38;27.10;51.30
17172;DHT22;8701;50.150;8.756;2023-04-03T11:34:44;27.20;53.50
17172;DHT22;8701;50.150;8.756;2023-04-03T11:38:52;27.20;51.10
17172;DHT22;8701;50.150;8.756;2023-04-03T11:43:04;27.30;49.90
17172;DHT22;8701;50.150;8.756;2023-04-03T11:47:08;27.60;51.60
17172;DHT22;8701;50.150;8.756;2023-04-03T11:55:59;27.50;51.20
17172;DHT22;8701;50.150;8.756;2023-04-03T12:09:24;27.60;52.00
17172;DHT22;8701;50.150;8.756;2023-04-03T12:13:30;27.00;50.40
17172;DHT22;8701;50.150;8.756;2023-04-03T12:17:33;26.80;51.60
17172;DHT22;8701;50.150;8.756;2023-04-03T12:22:05;27.00;51.70
17172;DHT22;8701;50.150;8.756;2023-04-03T12:26:27;26.90;51.60
17172;DHT22;8701;50.150;8.756;2023-04-03T12:30:31;25.20;51.40
17172;DHT22;8701;50.150;8.756;2023-04-03T12:34:51;24.90;52.20
17172;DHT22;8701;50.150;8.756;2023-04-03T12:39:13;25.70;51.90
17172;DHT22;8701;50.150;8.756;2023-04-03T12:43:31;26.50;52.30
17172;DHT22;8701;50.150;8.756;2023-04-03T12:47:38;26.40;48.30
17172;DHT22;8701;50.150;8.756;2023-04-03T12:51:45;25.50;52.00
17172;DHT22;8701;50.150;8.756;2023-04-03T12:55:53;25.70;53.20
17172;DHT22;8701;50.150;8.756;2023-04-03T12:59:56;26.00;52.70
17172;DHT22;8701;50.150;8.756;2023-04-03T13:03:59;25.90;52.60
17172;DHT22;8701;50.150;8.756;2023-04-03T13:08:04;25.00;52.30
17172;DHT22;8701;50.150;8.756;2023-04-03T13:12:11;25.00;51.20
17172;DHT22;8701;50.150;8.756;2023-04-03T13:16:16;25.30;51.90
17172;DHT22;8701;50.150;8.756;2023-04-03T13:20:23;25.10;51.70
17172;DHT22;8701;50.150;8.756;2023-04-03T13:24:26;25.00;52.70
17172;DHT22;8701;50.150;8.756;2023-04-03T13:28:30;24.60;54.10
17172;DHT22;8701;50.150;8.756;2023-04-03T13:32:32;24.70;53.50
17172;DHT22;8701;50.150;8.756;2023-04-03T13:36:38;23.90;51.70
17172;DHT22;8701;50.150;8.756;2023-04-03T13:40:48;23.70;54.70
17172;DHT22;8701;50.150;8.756;2023-04-03T13:45:16;23.40;53.40
17172;DHT22;8701;50.150;8.756;2023-04-03T13:49:20;22.80;54.90
17172;DHT22;8701;50.150;8.756;2023-04-03T13:53:25;22.70;52.10
17172;DHT22;8701;50.150;8.756;2023-04-03T13:57:28;22.60;53.60
17172;DHT22;8701;50.150;8.756;2023-04-03T14:01:40;21.80;54.60
17172;DHT22;8701;50.150;8.756;2023-04-03T14:05:42;21.40;53.90
17172;DHT22;8701;50.150;8.756;2023-04-03T14:09:48;21.20;53.10
17172;DHT22;8701;50.150;8.756;2023-04-03T14:13:50;20.80;55.30
17172;DHT22;8701;50.150;8.756;2023-04-03T14:17:53;20.60;56.40
17172;DHT22;8701;50.150;8.756;2023-04-03T14:21:57;20.10;56.50
17172;DHT22;8701;50.150;8.756;2023-04-03T14:26:00;19.70;57.00
17172;DHT22;8701;50.150;8.756;2023-04-03T14:30:04;19.30;56.20
17172;DHT22;8701;50.150;8.756;2023-04-03T14:34:07;19.00;56.00
17172;DHT22;8701;50.150;8.756;2023-04-03T14:38:21;18.80;57.40
17172;DHT22;8701;50.150;8.756;2023-04-03T14:42:28;18.50;54.80
17172;DHT22;8701;50.150;8.756;2023-04-03T14:46:33;18.60;58.00
17172;DHT22;8701;50.150;8.756;2023-04-03T14:50:37;18.30;54.50
17172;DHT22;8701;50.150;8.756;2023-04-03T14:54:39;17.70;56.30
17172;DHT22;8701;50.150;8.756;2023-04-03T14:58:43;17.50;53.70
17172;DHT22;8701;50.150;8.756;2023-04-03T15:02:46;17.50;58.70
17172;DHT22;8701;50.150;8.756;2023-04-03T15:06:49;17.20;58.10
17172;DHT22;8701;50.150;8.756;2023-04-03T15:10:53;17.30;57.20
17172;DHT22;8701;50.150;8.756;2023-04-03T15:14:58;17.20;59.00
17172;DHT22;8701;50.150;8.756;2023-04-03T15:19:01;17.00;58.30
17172;DHT22;8701;50.150;8.756;2023-04-03T15:23:03;16.80;58.60
17172;DHT22;8701;50.150;8.756;2023-04-03T15:27:07;16.70;54.70
17172;DHT22;8701;50.150;8.756;2023-04-03T15:31:10;16.30;56.30
17172;DHT22;8701;50.150;8.756;2023-04-03T15:35:13;15.60;54.80
17172;DHT22;8701;50.150;8.756;2023-04-03T15:39:15;15.30;58.30
17172;DHT22;8701;50.150;8.756;2023-04-03T15:43:18;15.40;58.50
17172;DHT22;8701;50.150;8.756;2023-04-03T15:47:21;15.60;59.00
17172;DHT22;8701;50.150;8.756;2023-04-03T15:51:23;15.40;58.40
17172;DHT22;8701;50.150;8.756;2023-04-03T15:55:27;15.10;59.70
17172;DHT22;8701;50.150;8.756;2023-04-03T15:59:30;14.80;58.30
17172;DHT22;8701;50.150;8.756;2023-04-03T16:03:34;14.60;59.60
17172;DHT22;8701;50.150;8.756;2023-04-03T16:07:37;14.60;58.70
17172;DHT22;8701;50.150;8.756;2023-04-03T16:11:39;14.40;63.10
17172;DHT22;8701;50.150;8.756;2023-04-03T16:15:42;14.20;60.80
17172;DHT22;8701;50.150;8.756;2023-04-03T16:19:46;14.00;62.00
17172;DHT22;8701;50.150;8.756;2023-04-03T16:23:48;13.90;59.20
17172;DHT22;8701;50.150;8.756;2023-04-03T16:27:50;13.60;59.30
17172;DHT22;8701;50.150;8.756;2023-04-03T16:31:53;13.50;59.90
17172;DHT22;8701;50.150;8.756;2023-04-03T16:35:56;13.30;61.70
17172;DHT22;8701;50.150;8.756;2023-04-03T16:39:59;13.20;61.90
17172;DHT22;8701;50.150;8.756;2023-04-03T16:44:01;13.00;63.20
17172;DHT22;8701;50.150;8.756;2023-04-03T16:48:04;12.90;63.60
17172;DHT22;8701;50.150;8.756;2023-04-03T16:52:08;12.90;64.10
17172;DHT22;8701;50.150;8.756;2023-04-03T16:56:10;12.90;64.70
17172;DHT22;8701;50.150;8.756;2023-04-03T17:00:13;12.70;63.50
17172;DHT22;8701;50.150;8.756;2023-04-03T17:04:16;12.60;65.50
17172;DHT22;8701;50.150;8.756;2023-04-03T17:08:19;12.50;64.10
17172;DHT22;8701;50.150;8.756;2023-04-03T17:12:22;12.30;65.90
17172;DHT22;8701;50.150;8.756;2023-04-03T17:16:25;12.30;61.90
17172;DHT22;8701;50.150;8.756;2023-04-03T17:20:27;12.10;66.40
17172;DHT22;8701;50.150;8.756;2023-04-03T17:24:31;12.00;66.80
17172;DHT22;8701;50.150;8.756;2023-04-03T17:28:33;12.00;64.80
17172;DHT22;8701;50.150;8.756;2023-04-03T17:32:35;11.90;67.40
17172;DHT22;8701;50.150;8.756;2023-04-03T17:36:38;11.60;66.50
17172;DHT22;8701;50.150;8.756;2023-04-03T17:40:42;11.40;65.20
17172;DHT22;8701;50.150;8.756;2023-04-03T17:44:45;11.20;65.90
17172;DHT22;8701;50.150;8.756;2023-04-03T17:48:48;11.20;64.30
17172;DHT22;8701;50.150;8.756;2023-04-03T17:52:50;11.10;67.60
17172;DHT22;8701;50.150;8.756;2023-04-03T17:56:54;11.00;67.60
17172;DHT22;8701;50.150;8.756;2023-04-03T18:00:56;10.90;66.80
17172;DHT22;8701;50.150;8.756;2023-04-03T18:04:58;10.70;66.50
17172;DHT22;8701;50.150;8.756;2023-04-03T18:09:04;10.60;68.40
17172;DHT22;8701;50.150;8.756;2023-04-03T18:13:09;10.50;67.80
17172;DHT22;8701;50.150;8.756;2023-04-03T18:17:12;10.30;67.80
17172;DHT22;8701;50.150;8.756;2023-04-03T18:21:14;10.30;69.10
17172;DHT22;8701;50.150;8.756;2023-04-03T18:25:17;10.20;68.50
17172;DHT22;8701;50.150;8.756;2023-04-03T18:29:21;10.10;68.90
17172;DHT22;8701;50.150;8.756;2023-04-03T18:33:23;9.90;68.10
17172;DHT22;8701;50.150;8.756;2023-04-03T18:37:25;9.90;70.20
17172;DHT22;8701;50.150;8.756;2023-04-03T18:41:32;9.80;69.60
17172;DHT22;8701;50.150;8.756;2023-04-03T18:45:36;9.60;69.50
17172;DHT22;8701;50.150;8.756;2023-04-03T18:49:40;9.60;69.50
17172;DHT22;8701;50.150;8.756;2023-04-03T18:53:43;9.50;70.00
17172;DHT22;8701;50.150;8.756;2023-04-03T18:57:46;9.40;73.00
17172;DHT22;8701;50.150;8.756;2023-04-03T19:01:50;9.30;70.80
17172;DHT22;8701;50.150;8.756;2023-04-03T19:05:52;9.20;70.30
17172;DHT22;8701;50.150;8.756;2023-04-03T19:09:54;9.10;74.00
17172;DHT22;8701;50.150;8.756;2023-04-03T19:13:57;9.00;71.00
17172;DHT22;8701;50.150;8.756;2023-04-03T19:18:01;8.90;72.60
17172;DHT22;8701;50.150;8.756;2023-04-03T19:22:03;8.80;71.50
17172;DHT22;8701;50.150;8.756;2023-04-03T19:26:07;8.70;70.10
17172;DHT22;8701;50.150;8.756;2023-04-03T19:30:11;8.70;75.70
17172;DHT22;8701;50.150;8.756;2023-04-03T19:34:15;8.60;72.40
17172;DHT22;8701;50.150;8.756;2023-04-03T19:38:17;8.50;73.90
17172;DHT22;8701;50.150;8.756;2023-04-03T19:42:19;8.30;72.70
17172;DHT22;8701;50.150;8.756;2023-04-03T19:46:22;8.30;72.90
17172;DHT22;8701;50.150;8.756;2023-04-03T19:50:26;8.30;74.30
17172;DHT22;8701;50.150;8.756;2023-04-03T19:54:28;8.20;74.80
17172;DHT22;8701;50.150;8.756;2023-04-03T19:58:30;8.10;74.60
17172;DHT22;8701;50.150;8.756;2023-04-03T20:02:33;8.10;74.10
17172;DHT22;8701;50.150;8.756;2023-04-03T20:06:36;8.10;73.30
17172;DHT22;8701;50.150;8.756;2023-04-03T20:10:39;7.90;75.00
17172;DHT22;8701;50.150;8.756;2023-04-03T20:14:41;7.80;76.70
17172;DHT22;8701;50.150;8.756;2023-04-03T20:18:46;7.70;76.10
17172;DHT22;8701;50.150;8.756;2023-04-03T20:22:50;7.70;78.80
17172;DHT22;8701;50.150;8.756;2023-04-03T20:26:53;7.60;75.20
17172;DHT22;8701;50.150;8.756;2023-04-03T20:30:57;7.60;75.80
17172;DHT22;8701;50.150;8.756;2023-04-03T20:35:02;7.40;75.20
17172;DHT22;8701;50.150;8.756;2023-04-03T20:39:05;7.30;77.70
17172;DHT22;8701;50.150;8.756;2023-04-03T20:43:08;7.30;78.00
17172;DHT22;8701;50.150;8.756;2023-04-03T20:47:10;7.20;78.10
17172;DHT22;8701;50.150;8.756;2023-04-03T20:51:15;7.20;81.00
17172;DHT22;8701;50.150;8.756;2023-04-03T20:55:20;7.20;79.30
17172;DHT22;8701;50.150;8.756;2023-04-03T20:59:22;7.10;77.50
17172;DHT22;8701;50.150;8.756;2023-04-03T21:03:26;7.10;78.20
17172;DHT22;8701;50.150;8.756;2023-04-03T21:20:54;6.80;79.70
17172;DHT22;8701;50.150;8.756;2023-04-03T21:24:56;6.80;80.70
17172;DHT22;8701;50.150;8.756;2023-04-03T21:28:59;6.70;79.80
17172;DHT22;8701;50.150;8.756;2023-04-03T21:33:01;6.60;81.70
17172;DHT22;8701;50.150;8.756;2023-04-03T21:37:06;6.50;80.70
17172;DHT22;8701;50.150;8.756;2023-04-03T21:41:09;6.50;79.40
17172;DHT22;8701;50.150;8.756;2023-04-03T21:45:11;6.40;80.30
17172;DHT22;8701;50.150;8.756;2023-04-03T21:49:15;6.30;81.00
17172;DHT22;8701;50.150;8.756;2023-04-03T21:53:19;6.30;82.50
17172;DHT22;8701;50.150;8.756;2023-04-03T21:57:22;6.40;81.40
17172;DHT22;8701;50.150;8.756;2023-04-03T22:01:24;6.30;80.40
17172;DHT22;8701;50.150;8.756;2023-04-03T22:05:26;6.20;81.20
17172;DHT22;8701;50.150;8.756;2023-04-03T22:09:30;6.20;83.20
17172;DHT22;8701;50.150;8.756;2023-04-03T22:13:32;6.20;81.50
17172;DHT22;8701;50.150;8.756;2023-04-03T22:17:35;6.10;81.60
17172;DHT22;8701;50.150;8.756;2023-04-03T22:21:38;6.10;82.10
17172;DHT22;8701;50.150;8.756;2023-04-03T22:25:42;6.00;83.60
17172;DHT22;8701;50.150;8.756;2023-04-03T22:29:44;5.90;83.20
17172;DHT22;8701;50.150;8.756;2023-04-03T22:33:46;5.90;82.90
17172;DHT22;8701;50.150;8.756;2023-04-03T22:37:49;5.90;84.80
17172;DHT22;8701;50.150;8.756;2023-04-03T22:41:53;5.80;85.40
17172;DHT22;8701;50.150;8.756;2023-04-03T22:45:56;5.70;87.20
17172;DHT22;8701;50.150;8.756;2023-04-03T22:49:59;5.60;87.60
17172;DHT22;8701;50.150;8.756;2023-04-03T22:54:01;5.60;89.80
17172;DHT22;8701;50.150;8.756;2023-04-03T22:58:04;5.60;89.80
17172;DHT22;8701;50.150;8.756;2023-04-03T23:02:07;5.40;88.10
17172;DHT22;8701;50.150;8.756;2023-04-03T23:06:10;5.40;89.30
17172;DHT22;8701;50.150;8.756;2023-04-03T23:10:13;5.40;89.50
17172;DHT22;8701;50.150;8.756;2023-04-03T23:14:17;5.50;88.60
17172;DHT22;8701;50.150;8.756;2023-04-03T23:18:22;5.50;89.70
17172;DHT22;8701;50.150;8.756;2023-04-03T23:22:24;5.40;89.60
17172;DHT22;8701;50.150;8.756;2023-04-03T23:26:27;5.40;90.30
17172;DHT22;8701;50.150;8.756;2023-04-03T23:30:30;5.30;90.50
17172;DHT22;8701;50.150;8.756;2023-04-03T23:34:33;5.30;90.30
17172;DHT22;8701;50.150;8.756;2023-04-03T23:38:36;5.30;91.00
17172;DHT22;8701;50.150;8.756;2023-04-03T23:42:38;5.20;90.30
17172;DHT22;8701;50.150;8.756;2023-04-03T23:46:42;5.20;91.00
17172;DHT22;8701;50.150;8.756;2023-04-03T23:50:44;5.20;91.00
17172;DHT22;8701;50.150;8.756;2023-04-03T23:54:46;5.20;90.50
17172;DHT22;8701;50.150;8.756;2023-04-03T23:58:49;5.10;90.70
